createdAt,value
2022-10-17T00:01:14.468Z,15.68
2022-10-17T00:03:42.681Z,15.51
2022-10-17T00:06:14.142Z,15.35
2022-10-17T00:08:43.605Z,15.19
2022-10-17T00:11:22.256Z,15.55
2022-10-17T00:13:53.912Z,18.05
2022-10-17T00:16:36.619Z,19.30
2022-10-17T00:19:06.747Z,18.34
2022-10-17T00:21:34.818Z,17.43
2022-10-17T00:24:02.786Z,16.86
2022-10-17T00:26:30.856Z,16.47
2022-10-17T00:28:58.997Z,16.17
2022-10-17T00:31:27.463Z,15.93
2022-10-17T00:33:58.655Z,15.73
2022-10-17T00:36:27.033Z,15.54
2022-10-17T00:38:59.413Z,15.36
2022-10-17T00:41:32.210Z,15.20
2022-10-17T00:44:31.493Z,15.05
2022-10-17T00:47:06.321Z,15.95
2022-10-17T00:49:39.000Z,18.64
2022-10-17T00:52:15.778Z,19.13
2022-10-17T00:54:52.142Z,18.04
2022-10-17T00:57:20.732Z,17.18
2022-10-17T00:59:53.096Z,16.66
2022-10-17T01:02:22.708Z,16.29
2022-10-17T01:04:53.438Z,16.00
2022-10-17T01:07:21.886Z,15.76
2022-10-17T01:09:51.629Z,15.55
2022-10-17T01:12:26.565Z,15.36
2022-10-17T01:15:14.191Z,15.18
2022-10-17T01:17:48.011Z,15.00
2022-10-17T01:20:34.297Z,15.53
2022-10-17T01:23:30.323Z,18.37
2022-10-17T01:26:13.754Z,19.11
2022-10-17T01:29:00.360Z,17.94
2022-10-17T01:31:40.616Z,17.05
2022-10-17T01:34:19.339Z,16.49
2022-10-17T01:37:04.307Z,16.12
2022-10-17T01:39:52.139Z,15.82
2022-10-17T01:42:31.012Z,15.57
2022-10-17T01:45:20.027Z,15.38
2022-10-17T01:47:52.641Z,15.19
2022-10-17T01:50:28.561Z,15.03
2022-10-17T01:53:13.629Z,15.57
2022-10-17T01:55:45.966Z,18.41
2022-10-17T01:58:20.731Z,19.13
2022-10-17T02:01:30.967Z,18.07
2022-10-17T02:04:03.919Z,17.03
2022-10-17T02:06:35.631Z,16.52
2022-10-17T02:09:20.605Z,16.16
2022-10-17T02:12:16.216Z,15.85
2022-10-17T02:15:00.363Z,15.58
2022-10-17T02:18:06.326Z,15.36
2022-10-17T02:20:45.147Z,15.12
2022-10-17T02:23:39.741Z,14.94
2022-10-17T02:26:18.238Z,15.78
2022-10-17T02:29:06.504Z,18.49
2022-10-17T02:31:56.383Z,18.86
2022-10-17T02:34:27.119Z,17.65
2022-10-17T02:37:02.356Z,16.90
2022-10-17T02:39:33.205Z,16.38
2022-10-17T02:42:06.181Z,16.01
2022-10-17T02:44:35.888Z,15.73
2022-10-17T02:47:17.785Z,15.49
2022-10-17T02:49:50.465Z,15.27
2022-10-17T02:52:28.124Z,15.08
2022-10-17T02:55:01.455Z,14.91
2022-10-17T02:57:40.482Z,15.44
2022-10-17T03:00:12.174Z,18.19
2022-10-17T03:02:40.723Z,19.06
2022-10-17T03:05:11.228Z,18.04
2022-10-17T03:07:39.322Z,17.14
2022-10-17T03:10:08.726Z,16.55
2022-10-17T03:12:37.824Z,16.13
2022-10-17T03:15:06.789Z,15.81
2022-10-17T03:17:36.144Z,15.54
2022-10-17T03:20:05.307Z,15.31
2022-10-17T03:22:33.997Z,15.10
2022-10-17T03:25:03.913Z,14.92
2022-10-17T03:27:32.309Z,15.35
2022-10-17T03:30:00.667Z,17.85
2022-10-17T03:32:29.969Z,19.03
2022-10-17T03:34:57.937Z,18.09
2022-10-17T03:37:26.195Z,17.16
2022-10-17T03:39:54.490Z,16.53
2022-10-17T03:42:22.664Z,16.10
2022-10-17T03:44:50.736Z,15.77
2022-10-17T03:47:18.807Z,15.49
2022-10-17T03:49:47.287Z,15.25
2022-10-17T03:52:16.305Z,15.04
2022-10-17T03:54:44.556Z,14.86
2022-10-17T03:57:12.525Z,15.29
2022-10-17T03:59:40.903Z,17.79
2022-10-17T04:02:13.685Z,19.05
2022-10-17T04:04:41.757Z,18.09
2022-10-17T04:07:09.731Z,17.13
2022-10-17T04:09:39.845Z,16.47
2022-10-17T04:12:12.528Z,16.02
2022-10-17T04:14:41.210Z,15.69
2022-10-17T04:17:10.203Z,15.42
2022-10-17T04:19:38.890Z,15.19
2022-10-17T04:22:08.701Z,14.98
2022-10-17T04:24:38.719Z,15.36
2022-10-17T04:27:22.251Z,18.02
2022-10-17T04:29:50.324Z,18.85
2022-10-17T04:32:22.695Z,17.83
2022-10-17T04:35:07.887Z,16.87
2022-10-17T04:37:35.941Z,16.30
2022-10-17T04:40:09.945Z,15.89
2022-10-17T04:42:38.431Z,15.57
2022-10-17T04:45:08.063Z,15.30
2022-10-17T04:47:36.621Z,15.07
2022-10-17T04:50:05.895Z,14.86
2022-10-17T04:52:37.619Z,15.30
2022-10-17T04:55:06.693Z,17.80
2022-10-17T04:57:36.167Z,18.87
2022-10-17T05:00:14.061Z,17.82
2022-10-17T05:03:11.335Z,16.76
2022-10-17T05:05:40.522Z,16.20
2022-10-17T05:08:10.961Z,15.78
2022-10-17T05:10:41.489Z,15.46
2022-10-17T05:13:10.381Z,15.19
2022-10-17T05:15:38.725Z,14.97
2022-10-17T05:18:07.545Z,14.76
2022-10-17T05:20:35.821Z,15.23
2022-10-17T05:23:03.896Z,17.72
2022-10-17T05:25:35.855Z,18.88
2022-10-17T05:28:03.926Z,17.91
2022-10-17T05:30:35.211Z,16.97
2022-10-17T05:33:06.315Z,16.30
2022-10-17T05:35:36.333Z,15.86
2022-10-17T05:38:04.610Z,15.52
2022-10-17T05:40:34.830Z,15.26
2022-10-17T05:43:03.823Z,15.04
2022-10-17T05:45:32.099Z,15.37
2022-10-17T05:48:00.581Z,17.76
2022-10-17T05:50:29.369Z,18.98
2022-10-17T05:53:03.176Z,18.05
2022-10-17T05:55:31.555Z,17.13
2022-10-17T05:58:03.095Z,16.52
2022-10-17T06:00:35.344Z,16.08
2022-10-17T06:03:03.550Z,15.77
2022-10-17T06:05:31.622Z,15.53
2022-10-17T06:08:01.983Z,15.32
2022-10-17T06:10:33.192Z,15.12
2022-10-17T06:13:01.482Z,15.52
2022-10-17T06:15:30.461Z,17.97
2022-10-17T06:18:06.212Z,19.22
2022-10-17T06:20:34.487Z,18.31
2022-10-17T06:23:04.051Z,17.39
2022-10-17T06:25:49.372Z,16.73
2022-10-17T06:28:17.644Z,16.33
2022-10-17T06:30:45.822Z,16.04
2022-10-17T06:33:13.788Z,15.79
2022-10-17T06:35:41.860Z,15.57
2022-10-17T06:38:10.217Z,15.38
2022-10-17T06:40:38.721Z,15.79
2022-10-17T06:43:07.610Z,18.25
2022-10-17T06:45:59.031Z,19.46
2022-10-17T06:48:39.183Z,18.42
2022-10-17T06:51:30.803Z,17.43
2022-10-17T06:54:00.311Z,16.89
2022-10-17T06:56:48.863Z,16.46
2022-10-17T06:59:31.885Z,16.16
2022-10-17T07:02:06.716Z,15.93
2022-10-17T07:04:34.991Z,15.75
2022-10-17T07:07:03.578Z,15.60
2022-10-17T07:09:33.908Z,16.11
2022-10-17T07:12:02.891Z,18.57
2022-10-17T07:14:32.236Z,19.90
2022-10-17T07:17:01.959Z,19.09
2022-10-17T07:19:32.839Z,18.13
2022-10-17T07:22:01.087Z,17.48
2022-10-17T07:24:29.290Z,17.09
2022-10-17T07:27:04.121Z,16.80
2022-10-17T07:29:32.191Z,16.59
2022-10-17T07:32:12.451Z,16.39
2022-10-17T07:34:41.443Z,16.25
2022-10-17T07:37:10.948Z,16.13
2022-10-17T07:39:41.885Z,16.65
2022-10-17T07:42:10.878Z,19.14
2022-10-17T07:44:39.050Z,20.36
2022-10-17T07:47:07.430Z,19.54
2022-10-17T07:49:42.686Z,18.67
2022-10-17T07:52:12.378Z,18.04
2022-10-17T07:54:41.054Z,17.65
2022-10-17T07:57:09.430Z,17.39
2022-10-17T07:59:38.600Z,17.20
2022-10-17T08:02:08.350Z,17.03
2022-10-17T08:04:36.732Z,16.90
2022-10-17T08:07:18.628Z,16.79
2022-10-17T08:09:48.948Z,16.70
2022-10-17T08:12:17.019Z,16.64
2022-10-17T08:14:45.091Z,17.29
2022-10-17T08:17:13.162Z,19.85
2022-10-17T08:19:41.440Z,20.84
2022-10-17T08:22:09.714Z,20.04
2022-10-17T08:24:38.094Z,19.27
2022-10-17T08:27:11.723Z,18.77
2022-10-17T08:29:41.151Z,18.45
2022-10-17T08:32:10.338Z,18.21
2022-10-17T08:34:38.571Z,18.02
2022-10-17T08:37:06.706Z,17.87
2022-10-17T08:39:34.918Z,17.75
2022-10-17T08:42:05.960Z,17.66
2022-10-17T08:44:57.280Z,17.60
2022-10-17T08:47:35.997Z,17.54
2022-10-17T08:50:07.548Z,17.52
2022-10-17T08:52:39.007Z,17.51
2022-10-17T08:55:28.065Z,17.51
2022-10-17T08:57:56.237Z,17.53
2022-10-17T09:00:26.357Z,17.55
2022-10-17T09:03:10.175Z,17.56
2022-10-17T09:05:50.859Z,18.35
2022-10-17T09:08:24.771Z,21.00
2022-10-17T09:11:31.347Z,21.69
2022-10-17T09:13:59.316Z,20.75
2022-10-17T09:16:55.342Z,20.19
2022-10-17T09:19:28.817Z,19.80
2022-10-17T09:22:05.927Z,19.59
2022-10-17T09:24:57.651Z,19.45
2022-10-17T09:27:36.945Z,19.34
2022-10-17T09:30:46.177Z,19.25
2022-10-17T09:33:35.058Z,19.18
2022-10-17T09:36:23.229Z,19.14
2022-10-17T09:38:57.913Z,19.11
2022-10-17T09:41:46.408Z,19.09
2022-10-17T09:44:17.761Z,19.07
2022-10-17T09:47:10.497Z,19.06
2022-10-17T09:49:41.845Z,19.06
2022-10-17T09:52:35.633Z,19.05
2022-10-17T09:55:18.456Z,19.05
2022-10-17T09:57:52.241Z,19.08
2022-10-17T10:00:26.610Z,19.11
2022-10-17T10:03:12.961Z,19.16
2022-10-17T10:05:41.852Z,19.22
2022-10-17T10:08:18.012Z,19.28
2022-10-17T10:10:46.493Z,19.33
2022-10-17T10:13:14.468Z,19.40
2022-10-17T10:15:47.759Z,19.45
2022-10-17T10:18:25.274Z,19.53
2022-10-17T10:21:18.591Z,19.60
2022-10-17T10:24:03.889Z,19.68
2022-10-17T10:26:55.231Z,19.75
2022-10-17T10:29:37.409Z,19.82
2022-10-17T10:32:22.578Z,19.88
2022-10-17T10:35:22.087Z,19.96
2022-10-17T10:37:53.128Z,20.02
2022-10-17T10:40:46.798Z,20.08
2022-10-17T10:43:38.090Z,20.15
2022-10-17T10:46:17.757Z,20.22
2022-10-17T10:48:59.705Z,20.27
2022-10-17T10:51:40.831Z,20.32
2022-10-17T10:54:28.318Z,20.36
2022-10-17T10:57:00.526Z,20.41
2022-10-17T11:00:25.083Z,20.45
2022-10-17T11:03:19.205Z,20.50
2022-10-17T11:05:56.492Z,20.55
2022-10-17T11:08:35.622Z,20.58
2022-10-17T11:11:09.531Z,20.61
2022-10-17T11:13:43.847Z,20.64
2022-10-17T11:16:40.079Z,20.64
2022-10-17T11:19:38.873Z,20.65
2022-10-17T11:22:31.302Z,20.66
2022-10-17T11:25:05.222Z,20.64
2022-10-17T11:27:35.445Z,20.64
2022-10-17T11:30:04.533Z,20.63
2022-10-17T11:32:40.804Z,20.62
2022-10-17T11:35:15.137Z,20.62
2022-10-17T11:37:50.258Z,20.60
2022-10-17T11:40:26.015Z,20.60
2022-10-17T11:43:02.272Z,20.59
2022-10-17T11:45:40.869Z,20.59
2022-10-17T11:48:22.582Z,20.59
2022-10-17T11:53:48.317Z,20.59
2022-10-17T11:56:26.936Z,20.60
2022-10-17T11:59:25.626Z,20.61
2022-10-17T12:02:01.889Z,20.60
2022-10-17T12:04:59.451Z,20.62
2022-10-17T12:07:27.638Z,20.63
2022-10-17T12:09:58.870Z,20.63
2022-10-17T12:12:32.716Z,20.64
2022-10-17T12:15:23.496Z,20.64
2022-10-17T12:18:17.477Z,20.64
2022-10-17T12:20:57.645Z,20.64
2022-10-17T12:23:30.397Z,20.64
2022-10-17T12:26:05.418Z,20.66
2022-10-17T12:28:45.199Z,20.68
2022-10-17T12:31:15.907Z,20.70
2022-10-17T12:33:49.904Z,20.71
2022-10-17T12:36:17.889Z,20.72
2022-10-17T12:38:52.311Z,20.73
2022-10-17T12:41:38.862Z,20.74
2022-10-17T12:44:13.237Z,20.75
2022-10-17T12:46:49.598Z,20.76
2022-10-17T12:49:23.983Z,20.77
2022-10-17T12:52:11.547Z,20.78
2022-10-17T12:54:47.284Z,20.80
2022-10-17T12:57:31.166Z,20.83
2022-10-17T13:00:05.354Z,20.84
2022-10-17T13:02:33.950Z,20.85
2022-10-17T13:05:14.913Z,20.86
2022-10-17T13:07:45.272Z,20.86
2022-10-17T13:10:22.906Z,20.87
2022-10-17T13:12:54.181Z,20.87
2022-10-17T13:15:22.689Z,20.87
2022-10-17T13:18:01.499Z,20.88
2022-10-17T13:20:31.990Z,20.89
2022-10-17T13:23:00.291Z,20.90
2022-10-17T13:25:28.667Z,20.90
2022-10-17T13:28:12.582Z,20.91
2022-10-17T13:30:48.571Z,20.91
2022-10-17T13:33:35.582Z,20.92
2022-10-17T13:36:07.852Z,20.92
2022-10-17T13:38:40.344Z,20.92
2022-10-17T13:41:34.776Z,20.93
2022-10-17T13:44:12.207Z,20.92
2022-10-17T13:46:41.028Z,20.93
2022-10-17T13:49:25.750Z,20.92
2022-10-17T13:51:58.541Z,20.94
2022-10-17T13:54:34.804Z,20.95
2022-10-17T13:57:04.924Z,20.96
2022-10-17T13:59:39.871Z,20.96
2022-10-17T14:02:15.813Z,20.97
2022-10-17T14:05:15.780Z,20.97
2022-10-17T14:07:58.130Z,20.99
2022-10-17T14:10:27.974Z,20.99
2022-10-17T14:12:56.633Z,20.99
2022-10-17T14:15:30.340Z,20.99
2022-10-17T14:18:07.762Z,21.01
2022-10-17T14:23:42.269Z,21.03
2022-10-17T14:26:13.184Z,21.03
2022-10-17T14:28:43.762Z,21.04
2022-10-17T14:31:36.487Z,21.03
2022-10-17T14:34:05.825Z,20.99
2022-10-17T14:36:44.078Z,20.96
2022-10-17T14:39:20.672Z,20.94
2022-10-17T16:16:29.315Z,19.33
2022-10-17T16:18:57.841Z,21.44
2022-10-17T16:24:04.876Z,22.37
2022-10-17T16:26:33.173Z,21.55
2022-10-17T16:29:03.654Z,20.99
2022-10-17T16:31:35.562Z,20.61
2022-10-17T16:34:04.860Z,20.33
2022-10-17T16:36:33.854Z,20.09
2022-10-17T16:39:01.926Z,19.90
2022-10-17T16:41:33.682Z,19.73
2022-10-17T16:44:03.598Z,19.57
2022-10-17T16:46:33.819Z,19.42
2022-10-17T16:49:04.554Z,19.29
2022-10-17T16:51:35.917Z,19.17
2022-10-17T16:54:04.795Z,19.05
2022-10-17T16:56:33.170Z,18.94
2022-10-17T16:59:01.989Z,18.85
2022-10-17T17:01:30.953Z,18.76
2022-10-17T17:03:59.809Z,18.69
2022-10-17T17:06:29.504Z,19.06
2022-10-17T17:08:58.052Z,21.32
2022-10-17T17:11:28.357Z,22.72
2022-10-17T17:13:57.815Z,22.03
2022-10-17T17:16:27.349Z,21.18
2022-10-17T17:18:58.101Z,20.59
2022-10-17T17:21:27.958Z,20.20
2022-10-17T17:23:58.752Z,19.90
2022-10-17T17:26:30.714Z,19.67
2022-10-17T17:28:59.674Z,19.46
2022-10-17T17:31:30.338Z,19.28
2022-10-17T17:33:58.526Z,19.12
2022-10-17T17:36:29.858Z,18.97
2022-10-17T17:39:00.142Z,18.83
2022-10-17T17:41:28.667Z,18.70
2022-10-17T17:43:57.248Z,18.58
2022-10-17T17:46:26.075Z,18.47
2022-10-17T17:48:55.387Z,18.37
2022-10-17T17:51:29.042Z,18.27
2022-10-17T17:53:57.852Z,18.81
2022-10-17T17:56:28.665Z,21.28
2022-10-17T17:58:59.546Z,22.32
2022-10-17T18:01:30.401Z,21.45
2022-10-17T18:03:59.636Z,20.63
2022-10-17T18:06:28.432Z,20.08
2022-10-17T18:08:58.750Z,19.72
2022-10-17T18:11:27.598Z,19.44
2022-10-17T18:14:01.068Z,19.22
2022-10-17T18:16:31.257Z,19.02
2022-10-17T18:19:04.126Z,18.83
2022-10-17T18:21:36.229Z,18.66
2022-10-17T18:24:05.055Z,18.51
2022-10-17T18:26:33.693Z,18.36
2022-10-17T18:29:04.533Z,18.21
2022-10-17T18:31:36.027Z,18.07
2022-10-17T18:34:05.891Z,17.96
2022-10-17T18:36:35.696Z,18.44
2022-10-17T18:39:05.204Z,20.84
2022-10-17T18:41:33.888Z,22.00
2022-10-17T18:44:05.223Z,21.21
2022-10-17T18:46:40.344Z,20.34
2022-10-17T18:49:16.123Z,19.74
2022-10-17T18:51:51.791Z,19.32
2022-10-17T18:54:22.265Z,19.04
2022-10-17T18:56:52.940Z,18.81
2022-10-17T19:02:06.668Z,18.41
2022-10-17T19:04:34.862Z,18.23
2022-10-17T19:07:02.932Z,18.06
2022-10-17T19:09:31.005Z,17.92
2022-10-17T19:12:00.382Z,17.78
2022-10-17T19:14:28.990Z,17.66
2022-10-17T19:16:57.574Z,18.09
2022-10-17T19:19:27.282Z,20.28
2022-10-17T19:21:55.559Z,21.57
2022-10-17T19:24:27.213Z,20.89
2022-10-17T19:26:56.411Z,20.01
2022-10-17T19:29:27.146Z,19.42
2022-10-17T19:34:24.312Z,18.73
2022-10-17T19:36:52.240Z,18.50
2022-10-17T19:39:23.121Z,18.29
2022-10-17T19:41:51.396Z,18.08
2022-10-17T19:44:19.467Z,17.91
2022-10-17T19:46:49.408Z,17.76
2022-10-17T19:49:18.425Z,17.62
2022-10-17T19:51:46.590Z,17.49
2022-10-17T19:54:18.332Z,17.99
2022-10-17T19:56:46.173Z,20.52
2022-10-17T19:59:15.750Z,21.33
2022-10-17T20:01:44.654Z,20.50
2022-10-17T20:04:13.711Z,19.70
2022-10-17T20:06:41.835Z,19.16
2022-10-17T20:09:15.677Z,18.79
2022-10-17T20:11:45.765Z,18.51
2022-10-17T20:14:13.832Z,18.28
2022-10-17T20:16:42.620Z,18.05
2022-10-17T20:19:13.160Z,17.88
2022-10-17T20:21:43.546Z,17.73
2022-10-17T20:24:14.620Z,17.59
2022-10-17T20:26:43.373Z,17.45
2022-10-17T20:29:18.235Z,17.33
2022-10-17T20:31:47.236Z,17.22
2022-10-17T20:34:17.869Z,17.80
2022-10-17T20:36:46.492Z,20.19
2022-10-17T20:39:16.567Z,21.20
2022-10-17T20:41:45.714Z,20.38
2022-10-17T20:44:14.855Z,19.54
2022-10-17T20:47:00.724Z,18.98
2022-10-17T20:49:32.299Z,18.55
2022-10-17T20:52:01.185Z,18.27
2022-10-17T20:54:29.234Z,18.03
2022-10-17T20:56:59.857Z,17.85
2022-10-17T20:59:30.830Z,17.68
2022-10-17T21:01:59.129Z,17.53
2022-10-17T21:07:16.855Z,17.23
2022-10-17T21:09:46.467Z,17.11
2022-10-17T21:12:21.705Z,17.61
2022-10-17T21:14:59.939Z,20.38
2022-10-17T21:17:28.188Z,21.02
2022-10-17T21:19:56.570Z,20.09
2022-10-17T21:22:25.051Z,19.28
2022-10-17T21:24:52.992Z,18.75
2022-10-17T21:27:20.985Z,18.37
2022-10-17T21:29:48.954Z,18.07
2022-10-17T21:32:31.861Z,17.82
2022-10-17T21:35:05.680Z,17.59
2022-10-17T21:37:33.648Z,17.41
2022-10-17T21:40:01.618Z,17.24
2022-10-17T21:42:29.946Z,17.09
2022-10-17T21:44:59.193Z,16.95
2022-10-17T21:47:27.743Z,16.83
2022-10-17T21:49:56.338Z,17.37
2022-10-17T21:52:24.533Z,19.97
2022-10-17T21:54:52.605Z,21.09
2022-10-17T21:57:20.575Z,20.19
2022-10-17T21:59:48.542Z,19.30
2022-10-17T22:02:16.614Z,18.70
2022-10-17T22:04:44.583Z,18.27
2022-10-17T22:07:12.552Z,17.94
2022-10-17T22:09:40.625Z,17.66
2022-10-17T22:12:08.598Z,17.44
2022-10-17T22:14:36.664Z,17.25
2022-10-17T22:17:04.633Z,17.06
2022-10-17T22:19:32.909Z,16.90
2022-10-17T22:22:00.980Z,16.75
2022-10-17T22:24:29.159Z,16.62
2022-10-17T22:26:57.225Z,17.15
2022-10-17T22:29:25.300Z,19.72
2022-10-17T22:31:53.368Z,20.82
2022-10-17T22:34:21.440Z,19.93
2022-10-17T22:36:49.833Z,19.05
2022-10-17T22:39:18.299Z,18.45
2022-10-17T22:41:46.373Z,18.01
2022-10-17T22:44:14.444Z,17.71
2022-10-17T22:46:42.394Z,17.46
2022-10-17T22:49:10.382Z,17.25
2022-10-17T22:51:38.378Z,17.06
2022-10-17T22:54:06.420Z,16.89
2022-10-17T22:56:34.405Z,16.72
2022-10-17T22:59:02.668Z,16.57
2022-10-17T23:01:30.653Z,17.04
2022-10-17T23:03:59.012Z,19.57
2022-10-17T23:06:26.982Z,20.67
2022-10-17T23:08:55.566Z,19.78
2022-10-17T23:11:23.636Z,18.88
2022-10-17T23:13:51.708Z,18.27
2022-10-17T23:16:19.778Z,17.83
2022-10-17T23:18:48.580Z,17.51
2022-10-17T23:21:16.640Z,17.26
2022-10-17T23:23:44.711Z,17.04
2022-10-17T23:26:14.326Z,16.86
2022-10-17T23:28:43.383Z,16.68
2022-10-17T23:31:17.083Z,16.52
2022-10-17T23:33:47.031Z,16.38
2022-10-17T23:36:18.070Z,16.87
2022-10-17T23:38:47.062Z,19.48
2022-10-17T23:41:15.443Z,20.52
2022-10-17T23:43:44.348Z,19.61
2022-10-17T23:46:12.815Z,18.72
2022-10-17T23:48:41.529Z,18.11
2022-10-17T23:51:10.806Z,17.70
2022-10-17T23:53:40.000Z,17.39
2022-10-17T23:56:09.574Z,17.14
2022-10-17T23:58:39.009Z,16.93
